sensor_id;sensor_type;location;lat;lon;timestamp;P1;durP1;ratioP1;P2;durP2;ratioP2
18228;SDS011;9239;50.932;3.142;2023-02-08T00:01:51;44.73;;;30.13;;
18228;SDS011;9239;50.932;3.142;2023-02-08T00:04:18;47.63;;;31.73;;
18228;SDS011;9239;50.932;3.142;2023-02-08T00:06:45;45.40;;;30.53;;
18228;SDS011;9239;50.932;3.142;2023-02-08T00:09:16;41.17;;;30.17;;
18228;SDS011;9239;50.932;3.142;2023-02-08T00:11:42;39.97;;;29.33;;
18228;SDS011;9239;50.932;3.142;2023-02-08T00:14:10;49.37;;;32.80;;
18228;SDS011;9239;50.932;3.142;2023-02-08T00:16:36;45.60;;;30.20;;
18228;SDS011;9239;50.932;3.142;2023-02-08T00:19:03;49.97;;;29.90;;
18228;SDS011;9239;50.932;3.142;2023-02-08T00:21:30;46.07;;;30.63;;
18228;SDS011;9239;50.932;3.142;2023-02-08T00:23:57;45.60;;;30.17;;
18228;SDS011;9239;50.932;3.142;2023-02-08T00:26:25;41.93;;;28.90;;
18228;SDS011;9239;50.932;3.142;2023-02-08T00:28:52;46.87;;;30.47;;
18228;SDS011;9239;50.932;3.142;2023-02-08T00:31:19;42.10;;;27.60;;
18228;SDS011;9239;50.932;3.142;2023-02-08T00:33:46;44.50;;;31.33;;
18228;SDS011;9239;50.932;3.142;2023-02-08T00:36:13;43.20;;;28.57;;
18228;SDS011;9239;50.932;3.142;2023-02-08T00:38:40;46.77;;;28.97;;
18228;SDS011;9239;50.932;3.142;2023-02-08T00:41:07;38.70;;;28.57;;
18228;SDS011;9239;50.932;3.142;2023-02-08T00:43:35;41.70;;;27.50;;
18228;SDS011;9239;50.932;3.142;2023-02-08T00:46:02;45.47;;;26.90;;
18228;SDS011;9239;50.932;3.142;2023-02-08T00:48:29;46.73;;;29.17;;
18228;SDS011;9239;50.932;3.142;2023-02-08T00:50:58;45.97;;;29.20;;
18228;SDS011;9239;50.932;3.142;2023-02-08T00:53:26;45.63;;;29.27;;
18228;SDS011;9239;50.932;3.142;2023-02-08T00:55:53;42.90;;;28.07;;
18228;SDS011;9239;50.932;3.142;2023-02-08T00:58:21;43.77;;;31.80;;
18228;SDS011;9239;50.932;3.142;2023-02-08T01:00:50;45.40;;;29.47;;
18228;SDS011;9239;50.932;3.142;2023-02-08T01:03:18;42.67;;;31.00;;
18228;SDS011;9239;50.932;3.142;2023-02-08T01:05:45;39.50;;;29.07;;
18228;SDS011;9239;50.932;3.142;2023-02-08T01:08:11;45.97;;;28.83;;
18228;SDS011;9239;50.932;3.142;2023-02-08T01:10:38;48.87;;;29.93;;
18228;SDS011;9239;50.932;3.142;2023-02-08T01:13:05;44.33;;;29.00;;
18228;SDS011;9239;50.932;3.142;2023-02-08T01:15:33;40.93;;;28.97;;
18228;SDS011;9239;50.932;3.142;2023-02-08T01:18:01;44.00;;;29.10;;
18228;SDS011;9239;50.932;3.142;2023-02-08T01:20:28;52.33;;;31.10;;
18228;SDS011;9239;50.932;3.142;2023-02-08T01:22:55;45.30;;;28.67;;
18228;SDS011;9239;50.932;3.142;2023-02-08T01:25:22;39.67;;;27.40;;
18228;SDS011;9239;50.932;3.142;2023-02-08T01:27:49;43.30;;;28.67;;
18228;SDS011;9239;50.932;3.142;2023-02-08T01:30:16;40.10;;;28.23;;
18228;SDS011;9239;50.932;3.142;2023-02-08T01:32:43;44.83;;;29.93;;
18228;SDS011;9239;50.932;3.142;2023-02-08T01:35:11;48.47;;;29.53;;
18228;SDS011;9239;50.932;3.142;2023-02-08T01:37:38;45.90;;;28.57;;
18228;SDS011;9239;50.932;3.142;2023-02-08T01:40:05;41.03;;;28.57;;
18228;SDS011;9239;50.932;3.142;2023-02-08T01:42:32;44.67;;;28.20;;
18228;SDS011;9239;50.932;3.142;2023-02-08T01:47:55;43.87;;;28.50;;
18228;SDS011;9239;50.932;3.142;2023-02-08T01:50:30;42.47;;;29.03;;
18228;SDS011;9239;50.932;3.142;2023-02-08T01:53:01;43.93;;;28.80;;
18228;SDS011;9239;50.932;3.142;2023-02-08T01:55:30;38.37;;;26.53;;
18228;SDS011;9239;50.932;3.142;2023-02-08T01:58:01;37.33;;;25.63;;
18228;SDS011;9239;50.932;3.142;2023-02-08T02:00:31;40.60;;;27.87;;
18228;SDS011;9239;50.932;3.142;2023-02-08T02:02:58;41.83;;;28.43;;
18228;SDS011;9239;50.932;3.142;2023-02-08T02:05:31;41.07;;;27.90;;
18228;SDS011;9239;50.932;3.142;2023-02-08T02:08:00;38.23;;;28.20;;
18228;SDS011;9239;50.932;3.142;2023-02-08T02:10:28;39.07;;;26.80;;
18228;SDS011;9239;50.932;3.142;2023-02-08T02:12:59;37.23;;;29.13;;
18228;SDS011;9239;50.932;3.142;2023-02-08T02:15:29;33.50;;;26.03;;
18228;SDS011;9239;50.932;3.142;2023-02-08T02:17:56;40.53;;;26.30;;
18228;SDS011;9239;50.932;3.142;2023-02-08T02:20:24;43.80;;;31.27;;
18228;SDS011;9239;50.932;3.142;2023-02-08T02:23:15;39.17;;;27.00;;
18228;SDS011;9239;50.932;3.142;2023-02-08T02:26:14;38.53;;;27.53;;
18228;SDS011;9239;50.932;3.142;2023-02-08T02:29:24;40.23;;;26.87;;
18228;SDS011;9239;50.932;3.142;2023-02-08T02:32:15;38.93;;;26.23;;
18228;SDS011;9239;50.932;3.142;2023-02-08T02:34:51;35.27;;;25.40;;
18228;SDS011;9239;50.932;3.142;2023-02-08T02:37:28;39.50;;;27.73;;
18228;SDS011;9239;50.932;3.142;2023-02-08T02:40:09;33.50;;;26.30;;
18228;SDS011;9239;50.932;3.142;2023-02-08T02:42:42;44.90;;;29.00;;
18228;SDS011;9239;50.932;3.142;2023-02-08T02:45:37;34.90;;;25.77;;
18228;SDS011;9239;50.932;3.142;2023-02-08T02:48:10;38.47;;;25.63;;
18228;SDS011;9239;50.932;3.142;2023-02-08T02:50:40;35.77;;;26.20;;
18228;SDS011;9239;50.932;3.142;2023-02-08T02:53:11;41.13;;;26.90;;
18228;SDS011;9239;50.932;3.142;2023-02-08T02:55:47;38.37;;;24.73;;
18228;SDS011;9239;50.932;3.142;2023-02-08T02:58:16;35.30;;;24.87;;
18228;SDS011;9239;50.932;3.142;2023-02-08T03:00:50;38.30;;;26.70;;
18228;SDS011;9239;50.932;3.142;2023-02-08T03:03:19;36.30;;;26.30;;
18228;SDS011;9239;50.932;3.142;2023-02-08T03:05:49;37.27;;;27.37;;
18228;SDS011;9239;50.932;3.142;2023-02-08T03:08:24;35.73;;;26.90;;
18228;SDS011;9239;50.932;3.142;2023-02-08T03:11:11;40.47;;;25.70;;
18228;SDS011;9239;50.932;3.142;2023-02-08T03:13:51;38.23;;;26.77;;
18228;SDS011;9239;50.932;3.142;2023-02-08T03:16:31;36.47;;;25.70;;
18228;SDS011;9239;50.932;3.142;2023-02-08T03:19:06;41.73;;;26.27;;
18228;SDS011;9239;50.932;3.142;2023-02-08T03:21:39;40.80;;;26.83;;
18228;SDS011;9239;50.932;3.142;2023-02-08T03:24:20;36.67;;;26.70;;
18228;SDS011;9239;50.932;3.142;2023-02-08T03:26:54;34.87;;;26.10;;
18228;SDS011;9239;50.932;3.142;2023-02-08T03:29:29;47.27;;;28.03;;
18228;SDS011;9239;50.932;3.142;2023-02-08T03:32:07;37.00;;;25.63;;
18228;SDS011;9239;50.932;3.142;2023-02-08T03:34:40;40.10;;;26.97;;
18228;SDS011;9239;50.932;3.142;2023-02-08T03:37:12;40.70;;;27.40;;
18228;SDS011;9239;50.932;3.142;2023-02-08T03:39:43;39.10;;;26.40;;
18228;SDS011;9239;50.932;3.142;2023-02-08T03:42:14;39.27;;;25.07;;
18228;SDS011;9239;50.932;3.142;2023-02-08T03:44:45;36.77;;;27.70;;
18228;SDS011;9239;50.932;3.142;2023-02-08T03:47:17;36.87;;;26.00;;
18228;SDS011;9239;50.932;3.142;2023-02-08T03:49:55;36.80;;;25.77;;
18228;SDS011;9239;50.932;3.142;2023-02-08T03:52:26;34.27;;;25.03;;
18228;SDS011;9239;50.932;3.142;2023-02-08T03:54:56;33.80;;;24.80;;
18228;SDS011;9239;50.932;3.142;2023-02-08T03:57:27;36.57;;;25.67;;
18228;SDS011;9239;50.932;3.142;2023-02-08T03:59:59;38.90;;;24.53;;
18228;SDS011;9239;50.932;3.142;2023-02-08T04:02:29;31.80;;;25.77;;
18228;SDS011;9239;50.932;3.142;2023-02-08T04:05:01;35.27;;;25.03;;
18228;SDS011;9239;50.932;3.142;2023-02-08T04:07:29;34.57;;;24.93;;
18228;SDS011;9239;50.932;3.142;2023-02-08T04:09:56;37.20;;;26.13;;
18228;SDS011;9239;50.932;3.142;2023-02-08T04:12:23;38.40;;;27.77;;
18228;SDS011;9239;50.932;3.142;2023-02-08T04:14:50;37.27;;;24.50;;
18228;SDS011;9239;50.932;3.142;2023-02-08T04:17:17;35.17;;;25.10;;
18228;SDS011;9239;50.932;3.142;2023-02-08T04:19:44;35.33;;;25.37;;
18228;SDS011;9239;50.932;3.142;2023-02-08T04:22:12;38.63;;;26.17;;
18228;SDS011;9239;50.932;3.142;2023-02-08T04:24:39;38.10;;;27.33;;
18228;SDS011;9239;50.932;3.142;2023-02-08T04:27:06;38.77;;;26.37;;
18228;SDS011;9239;50.932;3.142;2023-02-08T04:29:32;38.83;;;26.50;;
18228;SDS011;9239;50.932;3.142;2023-02-08T04:31:59;37.47;;;25.73;;
18228;SDS011;9239;50.932;3.142;2023-02-08T04:34:26;40.43;;;27.60;;
18228;SDS011;9239;50.932;3.142;2023-02-08T04:36:53;38.50;;;26.23;;
18228;SDS011;9239;50.932;3.142;2023-02-08T04:39:21;34.57;;;25.07;;
18228;SDS011;9239;50.932;3.142;2023-02-08T04:41:48;38.43;;;26.73;;
18228;SDS011;9239;50.932;3.142;2023-02-08T04:44:15;37.33;;;27.40;;
18228;SDS011;9239;50.932;3.142;2023-02-08T04:46:42;40.03;;;26.83;;
18228;SDS011;9239;50.932;3.142;2023-02-08T04:49:09;41.60;;;26.80;;
18228;SDS011;9239;50.932;3.142;2023-02-08T04:51:36;38.40;;;27.80;;
18228;SDS011;9239;50.932;3.142;2023-02-08T04:54:03;37.90;;;27.20;;
18228;SDS011;9239;50.932;3.142;2023-02-08T04:56:31;37.67;;;25.77;;
18228;SDS011;9239;50.932;3.142;2023-02-08T04:58:59;37.37;;;27.77;;
18228;SDS011;9239;50.932;3.142;2023-02-08T05:01:26;40.00;;;27.20;;
18228;SDS011;9239;50.932;3.142;2023-02-08T05:03:53;40.27;;;25.73;;
18228;SDS011;9239;50.932;3.142;2023-02-08T05:06:20;35.70;;;26.30;;
18228;SDS011;9239;50.932;3.142;2023-02-08T05:08:46;39.23;;;27.63;;
18228;SDS011;9239;50.932;3.142;2023-02-08T05:11:17;43.13;;;27.30;;
18228;SDS011;9239;50.932;3.142;2023-02-08T05:13:46;39.00;;;25.63;;
18228;SDS011;9239;50.932;3.142;2023-02-08T05:16:13;37.03;;;24.97;;
18228;SDS011;9239;50.932;3.142;2023-02-08T05:18:40;32.77;;;25.67;;
18228;SDS011;9239;50.932;3.142;2023-02-08T05:21:07;40.20;;;26.50;;
18228;SDS011;9239;50.932;3.142;2023-02-08T05:23:34;33.50;;;24.23;;
18228;SDS011;9239;50.932;3.142;2023-02-08T05:26:04;37.63;;;25.27;;
18228;SDS011;9239;50.932;3.142;2023-02-08T05:28:31;36.63;;;26.13;;
18228;SDS011;9239;50.932;3.142;2023-02-08T05:31:00;32.67;;;25.13;;
18228;SDS011;9239;50.932;3.142;2023-02-08T05:33:34;42.37;;;26.80;;
18228;SDS011;9239;50.932;3.142;2023-02-08T05:36:01;38.07;;;26.97;;
18228;SDS011;9239;50.932;3.142;2023-02-08T05:38:28;34.73;;;25.63;;
18228;SDS011;9239;50.932;3.142;2023-02-08T05:40:55;34.60;;;25.30;;
18228;SDS011;9239;50.932;3.142;2023-02-08T05:43:22;34.93;;;28.07;;
18228;SDS011;9239;50.932;3.142;2023-02-08T05:45:48;37.27;;;25.90;;
18228;SDS011;9239;50.932;3.142;2023-02-08T05:48:17;36.37;;;24.83;;
18228;SDS011;9239;50.932;3.142;2023-02-08T05:50:44;37.80;;;26.03;;
18228;SDS011;9239;50.932;3.142;2023-02-08T05:53:11;33.77;;;24.60;;
18228;SDS011;9239;50.932;3.142;2023-02-08T05:55:38;37.77;;;28.13;;
18228;SDS011;9239;50.932;3.142;2023-02-08T05:58:04;43.90;;;27.63;;
18228;SDS011;9239;50.932;3.142;2023-02-08T06:00:31;37.53;;;26.13;;
18228;SDS011;9239;50.932;3.142;2023-02-08T06:02:58;39.83;;;28.10;;
18228;SDS011;9239;50.932;3.142;2023-02-08T06:05:26;38.90;;;29.13;;
18228;SDS011;9239;50.932;3.142;2023-02-08T06:07:53;41.70;;;29.33;;
18228;SDS011;9239;50.932;3.142;2023-02-08T06:10:20;39.20;;;27.33;;
18228;SDS011;9239;50.932;3.142;2023-02-08T06:12:47;37.40;;;27.47;;
18228;SDS011;9239;50.932;3.142;2023-02-08T06:15:14;38.53;;;27.03;;
18228;SDS011;9239;50.932;3.142;2023-02-08T06:17:41;36.17;;;27.50;;
18228;SDS011;9239;50.932;3.142;2023-02-08T06:20:08;35.73;;;26.10;;
18228;SDS011;9239;50.932;3.142;2023-02-08T06:22:37;38.27;;;26.47;;
18228;SDS011;9239;50.932;3.142;2023-02-08T06:25:05;39.47;;;28.30;;
18228;SDS011;9239;50.932;3.142;2023-02-08T06:27:32;38.27;;;29.07;;
18228;SDS011;9239;50.932;3.142;2023-02-08T06:30:00;35.03;;;26.23;;
18228;SDS011;9239;50.932;3.142;2023-02-08T06:32:27;38.83;;;27.47;;
18228;SDS011;9239;50.932;3.142;2023-02-08T06:34:54;39.10;;;28.63;;
18228;SDS011;9239;50.932;3.142;2023-02-08T06:37:22;39.10;;;27.67;;
18228;SDS011;9239;50.932;3.142;2023-02-08T06:39:50;36.50;;;26.70;;
18228;SDS011;9239;50.932;3.142;2023-02-08T06:42:17;35.53;;;27.50;;
18228;SDS011;9239;50.932;3.142;2023-02-08T06:44:44;40.97;;;25.53;;
18228;SDS011;9239;50.932;3.142;2023-02-08T06:47:17;37.07;;;27.40;;
18228;SDS011;9239;50.932;3.142;2023-02-08T06:49:44;36.00;;;25.77;;
18228;SDS011;9239;50.932;3.142;2023-02-08T06:52:11;38.03;;;26.27;;
18228;SDS011;9239;50.932;3.142;2023-02-08T06:54:38;39.50;;;27.17;;
18228;SDS011;9239;50.932;3.142;2023-02-08T06:57:06;38.17;;;28.07;;
18228;SDS011;9239;50.932;3.142;2023-02-08T06:59:33;35.00;;;26.83;;
18228;SDS011;9239;50.932;3.142;2023-02-08T07:02:00;40.83;;;27.23;;
18228;SDS011;9239;50.932;3.142;2023-02-08T07:04:27;44.50;;;27.57;;
18228;SDS011;9239;50.932;3.142;2023-02-08T07:06:54;49.87;;;30.93;;
18228;SDS011;9239;50.932;3.142;2023-02-08T07:09:21;44.90;;;28.63;;
18228;SDS011;9239;50.932;3.142;2023-02-08T07:11:48;39.47;;;27.57;;
18228;SDS011;9239;50.932;3.142;2023-02-08T07:14:16;43.13;;;29.00;;
18228;SDS011;9239;50.932;3.142;2023-02-08T07:16:43;39.00;;;26.63;;
18228;SDS011;9239;50.932;3.142;2023-02-08T07:19:10;49.60;;;30.50;;
18228;SDS011;9239;50.932;3.142;2023-02-08T07:21:37;39.97;;;27.73;;
18228;SDS011;9239;50.932;3.142;2023-02-08T07:24:04;47.60;;;31.17;;
18228;SDS011;9239;50.932;3.142;2023-02-08T07:26:31;43.30;;;30.30;;
18228;SDS011;9239;50.932;3.142;2023-02-08T07:28:58;46.40;;;30.63;;
18228;SDS011;9239;50.932;3.142;2023-02-08T07:31:26;46.07;;;30.80;;
18228;SDS011;9239;50.932;3.142;2023-02-08T07:33:53;45.90;;;29.13;;
18228;SDS011;9239;50.932;3.142;2023-02-08T07:36:20;44.17;;;30.13;;
18228;SDS011;9239;50.932;3.142;2023-02-08T07:38:47;50.70;;;30.97;;
18228;SDS011;9239;50.932;3.142;2023-02-08T07:41:13;46.33;;;30.00;;
18228;SDS011;9239;50.932;3.142;2023-02-08T07:43:41;46.67;;;30.27;;
18228;SDS011;9239;50.932;3.142;2023-02-08T07:46:09;44.40;;;28.90;;
18228;SDS011;9239;50.932;3.142;2023-02-08T07:48:38;48.07;;;31.17;;
18228;SDS011;9239;50.932;3.142;2023-02-08T07:51:05;45.70;;;29.83;;
18228;SDS011;9239;50.932;3.142;2023-02-08T07:53:33;49.20;;;32.40;;
18228;SDS011;9239;50.932;3.142;2023-02-08T07:56:00;47.57;;;31.50;;
18228;SDS011;9239;50.932;3.142;2023-02-08T07:58:27;48.03;;;32.53;;
18228;SDS011;9239;50.932;3.142;2023-02-08T08:00:54;58.93;;;33.83;;
18228;SDS011;9239;50.932;3.142;2023-02-08T08:03:21;47.60;;;33.47;;
18228;SDS011;9239;50.932;3.142;2023-02-08T08:05:50;39.27;;;30.10;;
18228;SDS011;9239;50.932;3.142;2023-02-08T08:08:18;41.67;;;32.57;;
18228;SDS011;9239;50.932;3.142;2023-02-08T08:10:45;47.77;;;31.07;;
18228;SDS011;9239;50.932;3.142;2023-02-08T08:13:12;48.13;;;31.90;;
18228;SDS011;9239;50.932;3.142;2023-02-08T08:15:39;48.37;;;33.17;;
18228;SDS011;9239;50.932;3.142;2023-02-08T08:18:06;46.03;;;31.80;;
18228;SDS011;9239;50.932;3.142;2023-02-08T08:20:33;44.70;;;31.30;;
18228;SDS011;9239;50.932;3.142;2023-02-08T08:23:02;39.63;;;30.80;;
18228;SDS011;9239;50.932;3.142;2023-02-08T08:25:28;42.63;;;32.53;;
18228;SDS011;9239;50.932;3.142;2023-02-08T08:27:55;49.77;;;33.10;;
18228;SDS011;9239;50.932;3.142;2023-02-08T08:30:23;50.43;;;34.00;;
18228;SDS011;9239;50.932;3.142;2023-02-08T08:32:50;49.90;;;35.57;;
18228;SDS011;9239;50.932;3.142;2023-02-08T08:35:17;53.73;;;36.50;;
18228;SDS011;9239;50.932;3.142;2023-02-08T08:37:44;51.37;;;37.00;;
18228;SDS011;9239;50.932;3.142;2023-02-08T08:40:12;61.70;;;35.63;;
18228;SDS011;9239;50.932;3.142;2023-02-08T08:42:39;64.27;;;36.73;;
18228;SDS011;9239;50.932;3.142;2023-02-08T08:45:06;57.53;;;36.40;;
18228;SDS011;9239;50.932;3.142;2023-02-08T08:47:34;58.57;;;36.57;;
18228;SDS011;9239;50.932;3.142;2023-02-08T08:50:01;63.17;;;35.60;;
18228;SDS011;9239;50.932;3.142;2023-02-08T08:52:28;56.60;;;35.03;;
18228;SDS011;9239;50.932;3.142;2023-02-08T08:54:55;52.43;;;34.53;;
18228;SDS011;9239;50.932;3.142;2023-02-08T08:57:23;55.00;;;35.93;;
18228;SDS011;9239;50.932;3.142;2023-02-08T08:59:50;52.40;;;33.83;;
18228;SDS011;9239;50.932;3.142;2023-02-08T09:02:17;49.07;;;34.43;;
18228;SDS011;9239;50.932;3.142;2023-02-08T09:04:44;52.50;;;35.00;;
18228;SDS011;9239;50.932;3.142;2023-02-08T09:07:11;56.27;;;35.00;;
18228;SDS011;9239;50.932;3.142;2023-02-08T09:09:38;54.50;;;35.83;;
18228;SDS011;9239;50.932;3.142;2023-02-08T09:12:05;51.67;;;31.57;;
18228;SDS011;9239;50.932;3.142;2023-02-08T09:14:33;43.50;;;30.50;;
18228;SDS011;9239;50.932;3.142;2023-02-08T09:17:01;41.50;;;31.17;;
18228;SDS011;9239;50.932;3.142;2023-02-08T09:19:27;49.67;;;30.67;;
18228;SDS011;9239;50.932;3.142;2023-02-08T09:21:54;46.27;;;30.57;;
18228;SDS011;9239;50.932;3.142;2023-02-08T09:24:22;40.60;;;28.63;;
18228;SDS011;9239;50.932;3.142;2023-02-08T09:26:49;36.03;;;29.33;;
18228;SDS011;9239;50.932;3.142;2023-02-08T09:29:16;36.27;;;26.00;;
18228;SDS011;9239;50.932;3.142;2023-02-08T09:31:44;36.60;;;27.40;;
18228;SDS011;9239;50.932;3.142;2023-02-08T09:34:11;35.53;;;25.97;;
18228;SDS011;9239;50.932;3.142;2023-02-08T09:36:38;35.40;;;25.30;;
18228;SDS011;9239;50.932;3.142;2023-02-08T09:39:07;31.07;;;26.00;;
18228;SDS011;9239;50.932;3.142;2023-02-08T09:44:52;31.63;;;22.80;;
18228;SDS011;9239;50.932;3.142;2023-02-08T09:47:29;32.97;;;21.67;;
18228;SDS011;9239;50.932;3.142;2023-02-08T09:50:00;31.50;;;21.70;;
18228;SDS011;9239;50.932;3.142;2023-02-08T09:52:32;27.77;;;20.57;;
18228;SDS011;9239;50.932;3.142;2023-02-08T09:55:09;28.10;;;21.07;;
18228;SDS011;9239;50.932;3.142;2023-02-08T09:57:46;24.53;;;19.70;;
18228;SDS011;9239;50.932;3.142;2023-02-08T10:00:17;31.97;;;22.13;;
18228;SDS011;9239;50.932;3.142;2023-02-08T10:02:49;28.63;;;20.33;;
18228;SDS011;9239;50.932;3.142;2023-02-08T10:05:28;29.10;;;21.13;;
18228;SDS011;9239;50.932;3.142;2023-02-08T10:07:56;29.10;;;22.37;;
18228;SDS011;9239;50.932;3.142;2023-02-08T10:10:30;28.17;;;23.07;;
18228;SDS011;9239;50.932;3.142;2023-02-08T10:13:06;25.33;;;20.33;;
18228;SDS011;9239;50.932;3.142;2023-02-08T10:15:46;25.67;;;19.03;;
18228;SDS011;9239;50.932;3.142;2023-02-08T10:18:23;28.07;;;18.40;;
18228;SDS011;9239;50.932;3.142;2023-02-08T10:24:06;22.13;;;17.63;;
18228;SDS011;9239;50.932;3.142;2023-02-08T10:26:53;25.30;;;18.50;;
18228;SDS011;9239;50.932;3.142;2023-02-08T10:29:41;27.87;;;17.60;;
18228;SDS011;9239;50.932;3.142;2023-02-08T10:32:38;23.83;;;16.07;;
18228;SDS011;9239;50.932;3.142;2023-02-08T10:35:23;28.80;;;17.60;;
18228;SDS011;9239;50.932;3.142;2023-02-08T10:37:53;20.00;;;16.67;;
18228;SDS011;9239;50.932;3.142;2023-02-08T10:40:31;27.33;;;16.60;;
18228;SDS011;9239;50.932;3.142;2023-02-08T10:45:53;22.90;;;16.20;;
18228;SDS011;9239;50.932;3.142;2023-02-08T10:48:28;17.83;;;15.00;;
18228;SDS011;9239;50.932;3.142;2023-02-08T10:51:05;18.57;;;14.80;;
18228;SDS011;9239;50.932;3.142;2023-02-08T10:53:34;24.17;;;15.00;;
18228;SDS011;9239;50.932;3.142;2023-02-08T10:56:01;17.60;;;13.77;;
18228;SDS011;9239;50.932;3.142;2023-02-08T10:58:29;20.20;;;14.50;;
18228;SDS011;9239;50.932;3.142;2023-02-08T11:00:57;16.80;;;13.50;;
18228;SDS011;9239;50.932;3.142;2023-02-08T11:03:25;20.07;;;15.03;;
18228;SDS011;9239;50.932;3.142;2023-02-08T11:05:54;20.10;;;14.00;;
18228;SDS011;9239;50.932;3.142;2023-02-08T11:08:23;17.37;;;12.83;;
18228;SDS011;9239;50.932;3.142;2023-02-08T11:10:56;14.97;;;12.10;;
18228;SDS011;9239;50.932;3.142;2023-02-08T11:13:25;14.20;;;11.30;;
18228;SDS011;9239;50.932;3.142;2023-02-08T11:15:59;15.27;;;11.70;;
18228;SDS011;9239;50.932;3.142;2023-02-08T11:18:27;17.63;;;12.23;;
18228;SDS011;9239;50.932;3.142;2023-02-08T11:20:57;15.47;;;11.87;;
18228;SDS011;9239;50.932;3.142;2023-02-08T11:23:28;15.00;;;11.53;;
18228;SDS011;9239;50.932;3.142;2023-02-08T11:26:11;17.10;;;12.73;;
18228;SDS011;9239;50.932;3.142;2023-02-08T11:28:41;18.00;;;12.77;;
18228;SDS011;9239;50.932;3.142;2023-02-08T11:31:13;15.27;;;11.63;;
18228;SDS011;9239;50.932;3.142;2023-02-08T11:33:56;14.83;;;10.40;;
18228;SDS011;9239;50.932;3.142;2023-02-08T11:36:27;12.37;;;9.60;;
18228;SDS011;9239;50.932;3.142;2023-02-08T11:38:57;11.23;;;8.90;;
18228;SDS011;9239;50.932;3.142;2023-02-08T11:41:27;13.53;;;9.63;;
18228;SDS011;9239;50.932;3.142;2023-02-08T11:43:56;11.10;;;8.80;;
18228;SDS011;9239;50.932;3.142;2023-02-08T11:46:27;47.80;;;35.67;;
18228;SDS011;9239;50.932;3.142;2023-02-08T11:48:55;26.87;;;18.50;;
18228;SDS011;9239;50.932;3.142;2023-02-08T11:51:24;14.73;;;13.23;;
18228;SDS011;9239;50.932;3.142;2023-02-08T11:53:53;14.27;;;11.70;;
18228;SDS011;9239;50.932;3.142;2023-02-08T11:56:22;16.70;;;14.83;;
18228;SDS011;9239;50.932;3.142;2023-02-08T11:58:58;12.00;;;8.90;;
18228;SDS011;9239;50.932;3.142;2023-02-08T12:01:28;15.87;;;13.97;;
18228;SDS011;9239;50.932;3.142;2023-02-08T12:03:57;13.53;;;11.90;;
18228;SDS011;9239;50.932;3.142;2023-02-08T12:06:31;13.13;;;10.80;;
18228;SDS011;9239;50.932;3.142;2023-02-08T12:09:15;11.63;;;9.13;;
18228;SDS011;9239;50.932;3.142;2023-02-08T12:11:55;9.67;;;8.60;;
18228;SDS011;9239;50.932;3.142;2023-02-08T12:14:35;9.63;;;8.57;;
18228;SDS011;9239;50.932;3.142;2023-02-08T12:20:15;10.37;;;8.77;;
18228;SDS011;9239;50.932;3.142;2023-02-08T12:26:14;11.43;;;9.13;;
18228;SDS011;9239;50.932;3.142;2023-02-08T12:28:50;10.53;;;9.37;;
18228;SDS011;9239;50.932;3.142;2023-02-08T12:31:30;9.87;;;8.70;;
18228;SDS011;9239;50.932;3.142;2023-02-08T12:34:09;38.03;;;25.83;;
18228;SDS011;9239;50.932;3.142;2023-02-08T12:36:52;15.43;;;11.57;;
18228;SDS011;9239;50.932;3.142;2023-02-08T12:39:49;32.40;;;20.83;;
18228;SDS011;9239;50.932;3.142;2023-02-08T12:42:45;13.13;;;10.00;;
18228;SDS011;9239;50.932;3.142;2023-02-08T12:48:23;15.23;;;12.33;;
18228;SDS011;9239;50.932;3.142;2023-02-08T12:51:03;12.17;;;8.63;;
18228;SDS011;9239;50.932;3.142;2023-02-08T12:53:42;13.33;;;6.97;;
18228;SDS011;9239;50.932;3.142;2023-02-08T12:56:17;10.93;;;8.90;;
18228;SDS011;9239;50.932;3.142;2023-02-08T12:58:47;8.57;;;7.17;;
18228;SDS011;9239;50.932;3.142;2023-02-08T13:01:19;12.73;;;10.60;;
18228;SDS011;9239;50.932;3.142;2023-02-08T13:03:50;7.90;;;6.87;;
18228;SDS011;9239;50.932;3.142;2023-02-08T13:06:22;7.23;;;6.53;;
18228;SDS011;9239;50.932;3.142;2023-02-08T13:08:52;7.07;;;6.37;;
18228;SDS011;9239;50.932;3.142;2023-02-08T13:11:27;9.63;;;7.40;;
18228;SDS011;9239;50.932;3.142;2023-02-08T13:14:01;8.37;;;5.90;;
18228;SDS011;9239;50.932;3.142;2023-02-08T13:16:33;6.23;;;5.50;;
18228;SDS011;9239;50.932;3.142;2023-02-08T13:19:17;6.43;;;5.23;;
18228;SDS011;9239;50.932;3.142;2023-02-08T13:21:52;6.43;;;4.73;;
18228;SDS011;9239;50.932;3.142;2023-02-08T13:24:24;6.63;;;4.13;;
18228;SDS011;9239;50.932;3.142;2023-02-08T13:26:55;5.43;;;3.57;;
18228;SDS011;9239;50.932;3.142;2023-02-08T13:29:22;4.40;;;3.60;;
18228;SDS011;9239;50.932;3.142;2023-02-08T13:31:52;4.83;;;3.43;;
18228;SDS011;9239;50.932;3.142;2023-02-08T13:34:26;4.63;;;4.10;;
18228;SDS011;9239;50.932;3.142;2023-02-08T13:36:56;9.10;;;5.70;;
18228;SDS011;9239;50.932;3.142;2023-02-08T13:39:29;5.47;;;4.90;;
18228;SDS011;9239;50.932;3.142;2023-02-08T13:42:00;7.43;;;4.73;;
18228;SDS011;9239;50.932;3.142;2023-02-08T13:44:29;5.60;;;4.17;;
18228;SDS011;9239;50.932;3.142;2023-02-08T13:47:00;4.57;;;4.17;;
18228;SDS011;9239;50.932;3.142;2023-02-08T13:49:51;5.10;;;4.60;;
18228;SDS011;9239;50.932;3.142;2023-02-08T14:01:30;4.80;;;4.37;;
18228;SDS011;9239;50.932;3.142;2023-02-08T14:04:25;9.63;;;5.17;;
18228;SDS011;9239;50.932;3.142;2023-02-08T14:07:06;5.23;;;4.73;;
18228;SDS011;9239;50.932;3.142;2023-02-08T14:09:44;10.37;;;6.40;;
18228;SDS011;9239;50.932;3.142;2023-02-08T14:12:18;5.77;;;5.17;;
18228;SDS011;9239;50.932;3.142;2023-02-08T14:15:22;19.50;;;13.60;;
18228;SDS011;9239;50.932;3.142;2023-02-08T14:17:50;12.43;;;9.00;;
18228;SDS011;9239;50.932;3.142;2023-02-08T14:20:23;27.47;;;20.67;;
18228;SDS011;9239;50.932;3.142;2023-02-08T14:22:53;15.07;;;9.87;;
18228;SDS011;9239;50.932;3.142;2023-02-08T14:25:24;9.97;;;6.77;;
18228;SDS011;9239;50.932;3.142;2023-02-08T14:27:53;13.43;;;8.97;;
18228;SDS011;9239;50.932;3.142;2023-02-08T14:30:23;7.50;;;6.33;;
18228;SDS011;9239;50.932;3.142;2023-02-08T14:32:53;18.43;;;13.60;;
18228;SDS011;9239;50.932;3.142;2023-02-08T14:35:39;9.77;;;8.27;;
18228;SDS011;9239;50.932;3.142;2023-02-08T14:50:52;7.70;;;5.80;;
18228;SDS011;9239;50.932;3.142;2023-02-08T14:53:28;7.07;;;6.37;;
18228;SDS011;9239;50.932;3.142;2023-02-08T14:56:02;6.20;;;5.60;;
18228;SDS011;9239;50.932;3.142;2023-02-08T14:58:38;7.60;;;5.13;;
18228;SDS011;9239;50.932;3.142;2023-02-08T15:01:11;9.60;;;6.97;;
18228;SDS011;9239;50.932;3.142;2023-02-08T15:03:42;8.63;;;5.50;;
18228;SDS011;9239;50.932;3.142;2023-02-08T15:09:16;12.90;;;9.00;;
18228;SDS011;9239;50.932;3.142;2023-02-08T15:11:50;11.10;;;8.53;;
18228;SDS011;9239;50.932;3.142;2023-02-08T15:14:24;8.43;;;5.60;;
18228;SDS011;9239;50.932;3.142;2023-02-08T15:16:51;8.23;;;5.30;;
18228;SDS011;9239;50.932;3.142;2023-02-08T15:19:21;9.77;;;5.40;;
18228;SDS011;9239;50.932;3.142;2023-02-08T15:21:52;9.47;;;5.80;;
18228;SDS011;9239;50.932;3.142;2023-02-08T15:24:20;7.73;;;4.97;;
18228;SDS011;9239;50.932;3.142;2023-02-08T15:26:54;5.80;;;4.70;;
18228;SDS011;9239;50.932;3.142;2023-02-08T15:29:23;6.90;;;4.50;;
18228;SDS011;9239;50.932;3.142;2023-02-08T15:31:51;7.60;;;4.60;;
18228;SDS011;9239;50.932;3.142;2023-02-08T15:34:19;9.57;;;6.83;;
18228;SDS011;9239;50.932;3.142;2023-02-08T15:36:49;25.63;;;16.03;;
18228;SDS011;9239;50.932;3.142;2023-02-08T15:39:28;13.43;;;9.10;;
18228;SDS011;9239;50.932;3.142;2023-02-08T15:41:59;16.17;;;10.70;;
18228;SDS011;9239;50.932;3.142;2023-02-08T15:44:28;16.83;;;10.70;;
18228;SDS011;9239;50.932;3.142;2023-02-08T15:46:56;12.03;;;8.90;;